createdAt,value
2023-02-06T00:01:06.515Z,28.30
2023-02-06T00:03:35.761Z,28.20
2023-02-06T00:06:03.709Z,28.55
2023-02-06T00:08:31.522Z,27.95
2023-02-06T00:10:59.395Z,28.33
2023-02-06T00:13:27.382Z,28.30
2023-02-06T00:15:55.283Z,28.92
2023-02-06T00:18:23.149Z,28.70
2023-02-06T00:20:52.424Z,28.00
2023-02-06T00:23:20.319Z,28.05
2023-02-06T00:25:48.153Z,27.88
2023-02-06T00:28:16.040Z,27.83
2023-02-06T00:30:47.465Z,27.65
2023-02-06T00:33:15.419Z,28.65
2023-02-06T00:35:43.338Z,27.77
2023-02-06T00:38:12.846Z,28.92
2023-02-06T00:40:40.684Z,27.92
2023-02-06T00:43:08.516Z,27.70
2023-02-06T00:45:36.679Z,27.88
2023-02-06T00:48:04.984Z,27.42
2023-02-06T00:50:32.821Z,28.10
2023-02-06T00:53:00.706Z,28.55
2023-02-06T00:55:29.948Z,28.40
2023-02-06T00:57:57.805Z,27.80
2023-02-06T01:00:25.740Z,27.80
2023-02-06T01:02:53.617Z,27.92
2023-02-06T01:05:24.446Z,29.15
2023-02-06T01:07:52.476Z,28.20
2023-02-06T01:10:20.607Z,27.98
2023-02-06T01:12:49.812Z,27.95
2023-02-06T01:15:17.701Z,27.80
2023-02-06T01:17:45.594Z,27.55
2023-02-06T01:20:14.732Z,28.15
2023-02-06T01:22:42.863Z,28.88
2023-02-06T01:25:12.976Z,28.05
2023-02-06T01:27:40.827Z,27.75
2023-02-06T01:30:12.066Z,27.52
2023-02-06T01:32:40.528Z,27.73
2023-02-06T01:35:09.677Z,28.20
2023-02-06T01:37:38.561Z,28.55
2023-02-06T01:40:10.323Z,27.45
2023-02-06T01:42:38.638Z,28.50
2023-02-06T01:45:43.449Z,28.83
2023-02-06T01:48:16.196Z,28.80
2023-02-06T01:50:47.726Z,28.58
2023-02-06T01:53:16.499Z,28.40
2023-02-06T01:55:46.356Z,28.58
2023-02-06T01:58:18.914Z,27.80
2023-02-06T02:00:47.207Z,28.13
2023-02-06T02:03:16.686Z,28.75
2023-02-06T02:05:44.771Z,27.95
2023-02-06T02:08:16.182Z,27.77
2023-02-06T02:10:44.413Z,28.30
2023-02-06T02:13:12.324Z,27.55
2023-02-06T02:15:43.441Z,28.55
2023-02-06T02:18:26.866Z,28.10
2023-02-06T02:21:24.466Z,28.27
2023-02-06T02:23:56.407Z,27.52
2023-02-06T02:26:58.648Z,27.83
2023-02-06T02:29:38.334Z,28.63
2023-02-06T02:32:34.135Z,26.65
2023-02-06T02:35:11.928Z,27.25
2023-02-06T02:37:50.100Z,28.38
2023-02-06T02:40:25.266Z,27.08
2023-02-06T02:43:02.961Z,27.90
2023-02-06T02:45:38.106Z,28.35
2023-02-06T02:48:08.025Z,28.77
2023-02-06T02:50:37.826Z,28.00
2023-02-06T02:53:06.651Z,26.73
2023-02-06T02:55:35.072Z,28.23
2023-02-06T02:58:07.871Z,28.10
2023-02-06T03:00:38.395Z,28.95
2023-02-06T03:03:08.148Z,27.33
2023-02-06T03:05:41.849Z,28.25
2023-02-06T03:08:17.244Z,28.02
2023-02-06T03:10:49.538Z,27.70
2023-02-06T03:13:21.919Z,28.65
2023-02-06T03:15:56.070Z,28.90
2023-02-06T03:18:26.687Z,28.15
2023-02-06T03:20:56.097Z,29.25
2023-02-06T03:23:26.222Z,28.58
2023-02-06T03:25:56.220Z,28.40
2023-02-06T03:28:27.692Z,27.95
2023-02-06T03:30:57.550Z,27.75
2023-02-06T03:33:32.196Z,27.63
2023-02-06T03:36:01.543Z,28.50
2023-02-06T03:38:29.448Z,28.42
2023-02-06T03:40:59.260Z,27.58
2023-02-06T03:43:28.679Z,28.38
2023-02-06T03:46:00.162Z,27.40
2023-02-06T03:48:31.439Z,27.35
2023-02-06T03:51:02.514Z,27.65
2023-02-06T03:53:31.187Z,27.83
2023-02-06T03:56:02.850Z,27.83
2023-02-06T03:58:30.914Z,27.85
2023-02-06T04:00:59.042Z,28.35
2023-02-06T04:03:28.023Z,28.50
2023-02-06T04:05:55.868Z,28.25
2023-02-06T04:08:25.145Z,28.23
2023-02-06T04:10:53.000Z,28.42
2023-02-06T04:13:20.934Z,27.60
2023-02-06T04:15:48.897Z,28.15
2023-02-06T04:18:16.754Z,27.85
2023-02-06T04:20:44.597Z,28.13
2023-02-06T04:23:12.490Z,28.20
2023-02-06T04:25:41.749Z,28.17
2023-02-06T04:28:09.860Z,29.00
2023-02-06T04:30:37.806Z,27.83
2023-02-06T04:33:06.272Z,29.17
2023-02-06T04:35:34.401Z,29.77
2023-02-06T04:38:02.485Z,29.02
2023-02-06T04:40:30.304Z,29.42
2023-02-06T04:42:59.550Z,29.75
2023-02-06T04:45:27.472Z,29.42
2023-02-06T04:47:55.333Z,29.73
2023-02-06T04:50:23.259Z,30.25
2023-02-06T04:52:51.269Z,29.55
2023-02-06T04:55:19.176Z,29.45
2023-02-06T04:57:47.024Z,30.13
2023-02-06T05:00:17.512Z,30.52
2023-02-06T05:02:45.451Z,30.02
2023-02-06T05:05:13.447Z,28.85
2023-02-06T05:07:41.259Z,28.50
2023-02-06T05:10:09.967Z,28.75
2023-02-06T05:12:37.869Z,29.98
2023-02-06T05:15:06.164Z,29.67
2023-02-06T05:17:35.444Z,30.73
2023-02-06T05:20:03.687Z,28.23
2023-02-06T05:22:31.589Z,30.65
2023-02-06T05:24:59.547Z,30.25
2023-02-06T05:27:27.478Z,30.10
2023-02-06T05:29:56.795Z,30.15
2023-02-06T05:32:24.623Z,30.85
2023-02-06T05:34:53.813Z,30.13
2023-02-06T05:37:21.653Z,30.88
2023-02-06T05:39:49.529Z,30.17
2023-02-06T05:42:17.383Z,30.00
2023-02-06T05:44:46.905Z,30.40
2023-02-06T05:47:14.771Z,30.15
2023-02-06T05:49:44.016Z,30.38
2023-02-06T05:52:13.354Z,29.58
2023-02-06T05:54:41.219Z,29.92
2023-02-06T05:57:09.103Z,29.70
2023-02-06T05:59:37.005Z,29.58
2023-02-06T06:02:05.183Z,30.33
2023-02-06T06:04:33.100Z,29.48
2023-02-06T06:07:01.090Z,30.52
2023-02-06T06:09:30.345Z,30.33
2023-02-06T06:11:58.192Z,30.35
2023-02-06T06:14:26.233Z,29.85
2023-02-06T06:16:54.086Z,30.00
2023-02-06T06:19:21.989Z,30.48
2023-02-06T06:21:49.906Z,30.00
2023-02-06T06:24:17.878Z,30.02
2023-02-06T06:26:47.141Z,30.40
2023-02-06T06:29:17.619Z,30.30
2023-02-06T06:31:45.768Z,30.40
2023-02-06T06:34:13.668Z,30.23
2023-02-06T06:36:41.503Z,28.27
2023-02-06T06:39:09.507Z,30.27
2023-02-06T06:41:37.376Z,29.65
2023-02-06T06:44:06.752Z,29.90
2023-02-06T06:46:34.660Z,29.55
2023-02-06T06:49:02.586Z,29.55
2023-02-06T06:51:30.534Z,28.77
2023-02-06T06:53:58.851Z,30.27
2023-02-06T06:56:26.992Z,29.13
2023-02-06T06:58:55.510Z,29.13
2023-02-06T07:01:24.892Z,30.00
2023-02-06T07:03:52.891Z,30.25
2023-02-06T07:06:20.782Z,30.75
2023-02-06T07:08:48.718Z,30.40
2023-02-06T07:11:16.963Z,30.02
2023-02-06T07:13:44.943Z,30.60
2023-02-06T07:16:13.437Z,28.45
2023-02-06T07:18:43.071Z,30.08
2023-02-06T07:21:11.076Z,29.90
2023-02-06T07:23:39.071Z,30.30
2023-02-06T07:26:06.989Z,29.70
2023-02-06T07:28:35.204Z,30.13
2023-02-06T07:31:03.736Z,30.50
2023-02-06T07:33:31.669Z,30.42
2023-02-06T07:36:03.828Z,29.85
2023-02-06T07:38:32.118Z,30.45
2023-02-06T07:41:02.365Z,29.75
2023-02-06T07:43:30.690Z,29.83
2023-02-06T07:46:00.235Z,28.67
2023-02-06T07:48:28.386Z,31.05
2023-02-06T07:50:56.302Z,31.40
2023-02-06T07:53:25.552Z,30.45
2023-02-06T07:55:53.378Z,30.35
2023-02-06T07:58:21.287Z,30.27
2023-02-06T08:00:49.204Z,29.85
2023-02-06T08:03:17.031Z,30.55
2023-02-06T08:05:44.932Z,30.42
2023-02-06T08:08:12.761Z,29.95
2023-02-06T08:10:42.046Z,30.25
2023-02-06T08:13:09.917Z,31.13
2023-02-06T08:15:38.067Z,30.13
2023-02-06T08:18:06.217Z,29.98
2023-02-06T08:20:34.338Z,30.13
2023-02-06T08:23:02.242Z,30.20
2023-02-06T08:25:30.169Z,29.92
2023-02-06T08:27:59.430Z,30.50
2023-02-06T08:30:27.380Z,30.00
2023-02-06T08:32:55.336Z,31.45
2023-02-06T08:35:23.171Z,31.40
2023-02-06T08:37:51.004Z,30.95
2023-02-06T08:40:21.170Z,30.73
2023-02-06T08:42:51.403Z,31.15
2023-02-06T08:45:20.631Z,30.88
2023-02-06T08:47:48.542Z,31.75
2023-02-06T08:50:17.088Z,31.10
2023-02-06T08:52:44.985Z,31.38
2023-02-06T08:55:12.871Z,31.08
2023-02-06T08:57:40.752Z,31.33
2023-02-06T09:00:10.127Z,31.23
2023-02-06T09:02:39.346Z,30.45
2023-02-06T09:05:07.457Z,29.88
2023-02-06T09:07:35.291Z,30.92
2023-02-06T09:10:03.192Z,30.92
2023-02-06T09:12:31.135Z,31.05
2023-02-06T09:14:59.026Z,31.08
2023-02-06T09:17:27.264Z,29.60
2023-02-06T09:19:56.569Z,31.45
2023-02-06T09:22:24.506Z,31.63
2023-02-06T09:24:52.439Z,32.35
2023-02-06T09:27:20.391Z,30.55
2023-02-06T09:29:48.945Z,31.85
2023-02-06T09:32:16.860Z,31.38
2023-02-06T09:34:44.740Z,30.80
2023-02-06T09:37:13.940Z,31.55
2023-02-06T09:39:41.996Z,31.60
2023-02-06T09:42:14.087Z,32.25
2023-02-06T09:44:44.349Z,32.00
2023-02-06T09:47:19.657Z,31.50
2023-02-06T09:49:49.461Z,30.90
2023-02-06T09:52:31.387Z,31.67
2023-02-06T09:55:04.891Z,31.42
2023-02-06T09:57:40.535Z,31.65
2023-02-06T10:00:17.639Z,31.38
2023-02-06T10:03:09.166Z,31.15
2023-02-06T10:05:46.978Z,31.80
2023-02-06T10:08:21.980Z,30.90
2023-02-06T10:10:52.118Z,30.70
2023-02-06T10:13:23.853Z,31.38
2023-02-06T10:15:54.029Z,31.08
2023-02-06T10:18:27.266Z,32.03
2023-02-06T10:20:58.942Z,31.42
2023-02-06T10:23:32.369Z,31.75
2023-02-06T10:26:17.174Z,30.45
2023-02-06T10:28:46.211Z,29.90
2023-02-06T10:31:47.568Z,32.65
2023-02-06T10:34:26.824Z,31.35
2023-02-06T10:37:06.303Z,32.25
2023-02-06T10:39:46.639Z,32.15
2023-02-06T10:42:21.145Z,31.58
2023-02-06T10:44:53.867Z,32.28
2023-02-06T10:47:29.753Z,32.65
2023-02-06T10:50:01.763Z,32.03
2023-02-06T10:52:32.129Z,33.33
2023-02-06T10:55:05.085Z,32.08
2023-02-06T10:57:33.520Z,32.47
2023-02-06T11:00:02.871Z,32.50
2023-02-06T11:02:40.025Z,32.10
2023-02-06T11:05:10.465Z,32.03
2023-02-06T11:07:41.114Z,31.42
2023-02-06T11:10:14.123Z,32.13
2023-02-06T11:12:43.912Z,32.65
2023-02-06T11:15:21.608Z,32.53
2023-02-06T11:17:50.310Z,32.22
2023-02-06T11:20:22.132Z,32.03
2023-02-06T11:22:53.396Z,31.77
2023-02-06T11:25:33.616Z,31.42
2023-02-06T11:28:02.113Z,32.33
2023-02-06T11:30:33.522Z,32.83
2023-02-06T11:33:05.769Z,33.05
2023-02-06T11:35:38.934Z,32.38
2023-02-06T11:38:13.805Z,32.22
2023-02-06T11:40:43.862Z,31.30
2023-02-06T11:43:20.859Z,32.40
2023-02-06T11:45:52.260Z,32.05
2023-02-06T11:48:36.161Z,32.15
2023-02-06T11:51:04.770Z,32.30
2023-02-06T11:53:32.890Z,33.85
2023-02-06T11:56:05.058Z,32.30
2023-02-06T11:58:34.968Z,32.95
2023-02-06T12:01:05.845Z,33.25
2023-02-06T12:03:36.986Z,33.65
2023-02-06T12:06:09.856Z,33.20
2023-02-06T12:08:45.449Z,32.25
2023-02-06T12:11:19.122Z,32.42
2023-02-06T12:13:50.348Z,32.35
2023-02-06T12:16:18.997Z,31.73
2023-02-06T12:18:50.148Z,32.47
2023-02-06T12:21:24.435Z,31.90
2023-02-06T12:23:54.695Z,32.72
2023-02-06T12:26:26.332Z,31.75
2023-02-06T12:28:59.510Z,32.08
2023-02-06T12:31:33.278Z,31.95
2023-02-06T12:34:10.911Z,31.40
2023-02-06T12:36:50.895Z,30.08
2023-02-06T12:39:21.084Z,31.60
2023-02-06T12:42:02.188Z,31.40
2023-02-06T12:44:33.189Z,30.50
2023-02-06T12:47:04.812Z,31.63
2023-02-06T12:49:37.024Z,31.83
2023-02-06T12:52:10.404Z,32.17
2023-02-06T12:54:43.306Z,32.45
2023-02-06T12:57:16.304Z,31.20
2023-02-06T13:00:09.576Z,30.48
2023-02-06T13:03:02.461Z,31.48
2023-02-06T13:05:34.659Z,32.25
2023-02-06T13:08:06.933Z,31.05
2023-02-06T13:10:35.172Z,31.10
2023-02-06T13:13:05.104Z,31.40
2023-02-06T13:15:37.420Z,31.90
2023-02-06T13:18:36.371Z,31.58
2023-02-06T13:21:20.576Z,32.22
2023-02-06T13:24:15.599Z,32.88
2023-02-06T13:27:20.390Z,32.33
2023-02-06T13:29:51.546Z,32.67
2023-02-06T13:32:47.824Z,32.53
2023-02-06T13:35:29.087Z,32.80
2023-02-06T13:38:28.472Z,32.97
2023-02-06T13:41:18.958Z,32.08
2023-02-06T13:43:50.707Z,32.90
2023-02-06T13:46:21.895Z,32.25
2023-02-06T13:49:06.365Z,32.70
2023-02-06T13:51:50.302Z,32.60
2023-02-06T13:54:39.607Z,33.08
2023-02-06T13:57:32.788Z,33.50
2023-02-06T14:00:02.533Z,32.83
2023-02-06T14:02:40.040Z,32.47
2023-02-06T14:05:12.622Z,33.40
2023-02-06T14:08:01.082Z,32.40
2023-02-06T14:11:19.155Z,32.65
2023-02-06T14:14:01.894Z,31.00
2023-02-06T14:16:38.441Z,32.70
2023-02-06T14:19:13.967Z,32.55
2023-02-06T14:21:54.995Z,31.63
2023-02-06T14:24:44.874Z,31.95
2023-02-06T14:27:29.400Z,32.17
2023-02-06T14:30:06.008Z,31.38
2023-02-06T14:32:42.354Z,32.58
2023-02-06T14:35:29.358Z,32.25
2023-02-06T14:38:07.775Z,33.08
2023-02-06T14:40:41.481Z,32.72
2023-02-06T14:43:16.310Z,32.35
2023-02-06T14:45:49.675Z,33.30
2023-02-06T14:48:27.600Z,32.25
2023-02-06T14:50:57.863Z,31.77
2023-02-06T14:53:27.643Z,30.55
2023-02-06T14:56:07.611Z,30.85
2023-02-06T14:58:36.102Z,29.60
2023-02-06T15:01:20.450Z,29.52
2023-02-06T15:03:49.982Z,29.60
2023-02-06T15:06:34.405Z,28.23
2023-02-06T15:09:02.746Z,27.88
2023-02-06T15:11:32.636Z,27.70
2023-02-06T15:14:03.301Z,27.65
2023-02-06T15:16:33.058Z,28.10
2023-02-06T15:19:12.203Z,27.50
2023-02-06T15:21:44.125Z,27.80
2023-02-06T15:24:24.493Z,27.70
2023-02-06T15:26:56.074Z,27.80
2023-02-06T15:29:26.778Z,28.00
2023-02-06T15:31:56.272Z,27.40
2023-02-06T15:34:25.659Z,28.80
2023-02-06T15:36:55.081Z,28.80
2023-02-06T15:39:23.123Z,27.65
2023-02-06T15:41:53.590Z,28.73
2023-02-06T15:44:27.021Z,28.92
2023-02-06T15:46:56.033Z,28.85
2023-02-06T15:49:35.902Z,30.75
2023-02-06T15:52:06.341Z,30.45
2023-02-06T15:54:34.464Z,30.27
2023-02-06T15:57:05.626Z,30.00
2023-02-06T15:59:36.078Z,30.45
2023-02-06T16:02:05.019Z,28.80
2023-02-06T16:04:35.091Z,30.45
2023-02-06T16:07:07.368Z,30.55
2023-02-06T16:09:41.136Z,31.25
2023-02-06T16:12:09.625Z,31.02
2023-02-06T16:14:39.366Z,30.83
2023-02-06T16:17:23.958Z,30.95
2023-02-06T16:19:54.720Z,29.67
2023-02-06T16:22:29.174Z,31.10
2023-02-06T16:25:14.544Z,31.25
2023-02-06T16:27:45.720Z,30.52
2023-02-06T16:30:23.532Z,30.83
2023-02-06T16:32:53.551Z,31.33
2023-02-06T16:35:22.795Z,30.20
2023-02-06T16:37:53.507Z,30.45
2023-02-06T16:40:21.615Z,30.50
2023-02-06T16:42:49.520Z,31.13
2023-02-06T16:45:19.738Z,31.08
2023-02-06T16:47:47.745Z,30.30
2023-02-06T16:50:16.113Z,30.90
2023-02-06T16:52:51.261Z,30.90
2023-02-06T16:55:23.427Z,30.85
2023-02-06T16:57:54.185Z,31.02
2023-02-06T17:00:25.522Z,30.88
2023-02-06T17:02:54.211Z,30.60
2023-02-06T17:05:23.651Z,30.33
2023-02-06T17:07:51.742Z,31.15
2023-02-06T17:10:23.460Z,31.15
2023-02-06T17:12:54.626Z,30.75
2023-02-06T17:15:22.622Z,30.75
2023-02-06T17:17:50.513Z,29.58
2023-02-06T17:20:25.894Z,30.13
2023-02-06T17:22:53.786Z,31.00
2023-02-06T17:25:23.001Z,30.08
2023-02-06T17:27:50.906Z,30.65
2023-02-06T17:30:20.713Z,30.35
2023-02-06T17:32:48.680Z,30.90
2023-02-06T17:35:17.112Z,30.15
2023-02-06T17:37:45.012Z,30.45
2023-02-06T17:40:18.839Z,30.17
2023-02-06T17:42:48.747Z,30.25
2023-02-06T17:45:16.863Z,30.77
2023-02-06T17:47:45.065Z,30.55
2023-02-06T17:50:15.477Z,30.30
2023-02-06T17:52:43.397Z,30.85
2023-02-06T17:55:11.513Z,30.60
2023-02-06T17:57:39.849Z,30.25
2023-02-06T18:00:14.165Z,29.98
2023-02-06T18:02:42.100Z,30.75
2023-02-06T18:05:10.399Z,30.08
2023-02-06T18:07:38.682Z,30.30
2023-02-06T18:10:07.604Z,31.17
2023-02-06T18:12:35.825Z,29.80
2023-02-06T18:15:03.878Z,30.45
2023-02-06T18:17:33.218Z,30.45
2023-02-06T18:20:01.397Z,31.00
2023-02-06T18:22:29.413Z,31.02
2023-02-06T18:24:57.444Z,30.95
2023-02-06T18:27:25.304Z,30.50
2023-02-06T18:29:55.146Z,29.88
2023-02-06T18:32:23.199Z,30.20
2023-02-06T18:34:52.411Z,30.75
2023-02-06T18:37:20.345Z,30.33
2023-02-06T18:39:48.260Z,29.42
2023-02-06T18:42:33.269Z,30.77
2023-02-06T18:45:03.249Z,30.42
2023-02-06T18:47:31.989Z,30.67
2023-02-06T18:50:01.242Z,31.15
2023-02-06T18:52:29.168Z,30.67
2023-02-06T18:54:57.026Z,30.75
2023-02-06T18:57:24.841Z,31.05
2023-02-06T18:59:52.780Z,30.75
2023-02-06T19:02:20.669Z,30.65
2023-02-06T19:04:48.639Z,31.00
2023-02-06T19:07:18.392Z,31.00
2023-02-06T19:09:46.338Z,28.98
2023-02-06T19:12:14.289Z,30.58
2023-02-06T19:14:42.236Z,30.88
2023-02-06T19:17:10.065Z,30.38
2023-02-06T19:19:37.960Z,30.77
2023-02-06T19:22:05.926Z,30.08
2023-02-06T19:24:35.200Z,30.75
2023-02-06T19:27:03.097Z,31.25
2023-02-06T19:29:36.002Z,31.02
2023-02-06T19:32:05.155Z,31.77
2023-02-06T19:34:35.982Z,31.15
2023-02-06T19:37:04.202Z,31.33
2023-02-06T19:39:34.157Z,31.70
2023-02-06T19:42:06.420Z,30.05
2023-02-06T19:44:34.684Z,29.88
2023-02-06T19:47:03.105Z,30.65
2023-02-06T19:49:31.617Z,31.00
2023-02-06T19:51:59.564Z,29.17
2023-02-06T19:54:27.608Z,29.33
2023-02-06T19:56:55.614Z,31.50
2023-02-06T19:59:28.348Z,30.15
2023-02-06T20:01:58.337Z,31.08
2023-02-06T20:04:30.195Z,30.80
2023-02-06T20:06:58.151Z,31.65
2023-02-06T20:09:27.015Z,30.08
2023-02-06T20:11:55.344Z,29.05
2023-02-06T20:14:25.423Z,30.10
2023-02-06T20:16:53.433Z,31.45
2023-02-06T20:19:24.269Z,30.50
2023-02-06T20:21:53.741Z,30.23
2023-02-06T20:24:23.928Z,31.20
2023-02-06T20:26:55.770Z,31.35
2023-02-06T20:29:27.616Z,31.50
2023-02-06T20:31:56.546Z,30.92
2023-02-06T20:34:24.935Z,30.80
2023-02-06T20:36:53.313Z,30.55
2023-02-06T20:39:21.385Z,30.77
2023-02-06T20:41:50.915Z,31.17
2023-02-06T20:44:20.014Z,30.42
2023-02-06T20:46:49.956Z,30.60
2023-02-06T20:49:19.637Z,31.52
2023-02-06T20:51:48.990Z,29.92
2023-02-06T20:54:17.113Z,31.50
2023-02-06T20:56:45.157Z,31.10
2023-02-06T20:59:14.274Z,30.80
2023-02-06T21:01:42.692Z,31.23
2023-02-06T21:04:13.536Z,30.95
2023-02-06T21:06:41.681Z,30.33
2023-02-06T21:09:10.175Z,31.38
2023-02-06T21:11:40.394Z,30.98
2023-02-06T21:14:08.717Z,30.35
2023-02-06T21:16:38.711Z,31.80
2023-02-06T21:19:07.799Z,31.65
2023-02-06T21:21:37.495Z,30.05
2023-02-06T21:24:06.265Z,30.50
2023-02-06T21:26:34.485Z,31.10
2023-02-06T21:29:03.391Z,30.58
2023-02-06T21:31:36.933Z,31.85
2023-02-06T21:34:08.986Z,30.95
2023-02-06T21:36:39.548Z,31.08
2023-02-06T21:39:07.847Z,30.52
2023-02-06T21:41:36.043Z,30.25
2023-02-06T21:44:04.460Z,28.63
2023-02-06T21:46:33.324Z,31.80
2023-02-06T21:49:01.204Z,29.77
2023-02-06T21:51:29.225Z,30.90
2023-02-06T21:53:58.830Z,31.65
2023-02-06T21:56:28.170Z,31.02
2023-02-06T21:58:56.245Z,31.80
2023-02-06T22:01:27.090Z,31.55
2023-02-06T23:40:49.191Z,31.23
2023-02-06T23:43:17.072Z,31.95
2023-02-06T23:45:45.077Z,30.02
2023-02-06T23:48:12.935Z,30.45
2023-02-06T23:50:40.850Z,31.40
2023-02-06T23:53:12.757Z,30.42
2023-02-06T23:55:41.074Z,30.85
2023-02-06T23:58:08.983Z,31.27
